createdAt,value
2023-03-02T00:16:02.142Z,22.60
2023-03-02T00:18:31.695Z,22.60
2023-03-02T00:21:01.026Z,22.60
2023-03-02T00:23:30.496Z,22.50
2023-03-02T00:25:59.900Z,22.40
2023-03-02T00:28:29.680Z,22.30
2023-03-02T00:30:59.665Z,22.40
2023-03-02T00:33:29.016Z,22.50
2023-03-02T00:35:58.421Z,22.60
2023-03-02T00:38:29.373Z,22.70
2023-03-02T00:40:59.159Z,22.70
2023-03-02T00:43:29.829Z,22.80
2023-03-02T00:46:00.561Z,23.00
2023-03-02T00:48:31.132Z,23.40
2023-03-02T00:51:02.507Z,23.50
2023-03-02T00:53:31.988Z,23.40
2023-03-02T00:56:02.644Z,23.20
2023-03-02T00:58:32.671Z,23.20
2023-03-02T01:01:06.720Z,23.20
2023-03-02T01:03:36.094Z,23.10
2023-03-02T01:06:06.321Z,23.30
2023-03-02T01:08:35.698Z,23.30
2023-03-02T01:11:05.211Z,23.30
2023-03-02T01:13:34.541Z,23.60
2023-03-02T01:16:05.116Z,24.00
2023-03-02T01:18:36.445Z,24.40
2023-03-02T01:21:07.295Z,24.50
2023-03-02T01:23:36.682Z,24.70
2023-03-02T01:26:06.082Z,24.80
2023-03-02T01:28:35.625Z,24.70
2023-03-02T01:31:06.496Z,24.50
2023-03-02T01:33:36.318Z,24.30
2023-03-02T01:36:05.815Z,24.30
2023-03-02T01:38:35.198Z,24.30
2023-03-02T01:41:04.574Z,24.50
2023-03-02T01:43:33.949Z,24.80
2023-03-02T01:46:36.779Z,25.00
2023-03-02T01:49:08.784Z,25.30
2023-03-02T01:51:41.483Z,25.50
2023-03-02T01:54:12.641Z,25.80
2023-03-02T01:56:42.523Z,26.00
2023-03-02T01:59:14.437Z,26.10
2023-03-02T02:01:47.804Z,26.20
2023-03-02T02:04:17.197Z,26.40
2023-03-02T02:06:49.640Z,26.60
2023-03-02T02:09:20.718Z,26.50
2023-03-02T02:11:50.432Z,26.40
2023-03-02T02:14:21.011Z,26.60
2023-03-02T02:16:50.576Z,26.60
2023-03-02T02:19:27.382Z,26.60
2023-03-02T02:21:56.704Z,26.70
2023-03-02T02:24:38.066Z,26.80
2023-03-02T02:27:07.648Z,26.90
2023-03-02T02:29:39.900Z,27.00
2023-03-02T02:32:14.574Z,27.10
2023-03-02T02:34:47.655Z,27.20
2023-03-02T02:37:19.462Z,27.20
2023-03-02T02:39:50.381Z,27.30
2023-03-02T02:42:29.080Z,27.30
2023-03-02T02:44:59.769Z,27.30
2023-03-02T02:47:30.118Z,27.30
2023-03-02T02:50:00.869Z,27.20
2023-03-02T02:52:30.937Z,27.30
2023-03-02T02:55:02.100Z,27.40
2023-03-02T02:57:32.120Z,27.40
2023-03-02T03:00:02.667Z,27.40
2023-03-02T03:02:34.937Z,27.50
2023-03-02T03:05:07.214Z,27.50
2023-03-02T03:07:37.677Z,27.70
2023-03-02T03:10:26.989Z,27.70
2023-03-02T03:12:56.930Z,27.70
2023-03-02T03:15:26.297Z,27.40
2023-03-02T03:17:58.100Z,27.30
2023-03-02T03:20:27.940Z,27.50
2023-03-02T03:23:01.268Z,27.60
2023-03-02T03:25:30.648Z,27.80
2023-03-02T03:27:59.980Z,27.90
2023-03-02T03:30:29.730Z,28.00
2023-03-02T03:32:59.083Z,28.10
2023-03-02T03:35:28.500Z,28.20
2023-03-02T03:37:58.112Z,28.20
2023-03-02T03:40:27.840Z,28.30
2023-03-02T03:42:57.433Z,28.30
2023-03-02T03:45:28.291Z,28.40
2023-03-02T03:48:00.223Z,28.50
2023-03-02T03:50:29.595Z,28.40
2023-03-02T03:52:59.300Z,28.40
2023-03-02T03:55:30.664Z,28.40
2023-03-02T03:58:00.061Z,28.40
2023-03-02T04:00:29.483Z,28.40
2023-03-02T04:02:58.972Z,28.40
2023-03-02T04:05:29.680Z,28.50
2023-03-02T04:08:03.640Z,28.60
2023-03-02T04:10:33.109Z,28.70
2023-03-02T04:13:02.500Z,28.80
2023-03-02T04:15:32.212Z,28.80
2023-03-02T04:18:01.855Z,28.80
2023-03-02T04:20:31.414Z,28.70
2023-03-02T04:23:01.054Z,28.80
2023-03-02T04:25:31.881Z,28.90
2023-03-02T04:28:01.464Z,28.90
2023-03-02T04:30:32.100Z,28.90
2023-03-02T04:33:01.506Z,29.00
2023-03-02T04:35:30.931Z,29.10
2023-03-02T04:38:01.044Z,29.10
2023-03-02T04:40:30.975Z,29.10
2023-03-02T04:43:00.289Z,28.80
2023-03-02T04:45:29.688Z,28.80
2023-03-02T04:47:59.242Z,28.80
2023-03-02T04:50:28.639Z,28.70
2023-03-02T04:52:58.496Z,28.80
2023-03-02T04:55:28.977Z,28.70
2023-03-02T04:57:58.367Z,28.80
2023-03-02T05:00:31.658Z,28.90
2023-03-02T05:03:03.246Z,29.10
2023-03-02T05:05:33.664Z,29.00
2023-03-02T05:08:03.126Z,29.00
2023-03-02T05:10:32.893Z,29.10
2023-03-02T05:13:06.769Z,29.00
2023-03-02T05:15:36.152Z,28.90
2023-03-02T05:18:07.090Z,29.00
2023-03-02T05:20:36.910Z,29.10
2023-03-02T05:23:07.593Z,29.10
2023-03-02T05:25:38.994Z,29.10
2023-03-02T05:28:09.540Z,29.20
2023-03-02T05:30:39.333Z,29.20
2023-03-02T05:33:10.017Z,29.20
2023-03-02T05:35:39.539Z,29.20
2023-03-02T05:38:09.473Z,29.30
2023-03-02T05:40:38.801Z,29.30
2023-03-02T05:43:08.841Z,29.30
2023-03-02T05:45:39.472Z,29.40
2023-03-02T05:48:09.007Z,29.40
2023-03-02T05:50:38.384Z,29.40
2023-03-02T05:53:07.728Z,29.40
2023-03-02T05:55:40.052Z,29.30
2023-03-02T05:58:10.752Z,29.20
2023-03-02T06:00:40.100Z,29.20
2023-03-02T06:03:09.912Z,29.20
2023-03-02T06:05:44.092Z,29.20
2023-03-02T06:08:13.745Z,29.20
2023-03-02T06:10:43.524Z,29.20
2023-03-02T06:13:12.888Z,29.40
2023-03-02T06:15:44.208Z,29.50
2023-03-02T06:18:14.279Z,29.40
2023-03-02T06:20:43.673Z,29.20
2023-03-02T06:23:13.883Z,29.20
2023-03-02T06:25:50.103Z,29.20
2023-03-02T06:28:22.031Z,29.20
2023-03-02T06:30:51.625Z,29.20
2023-03-02T06:33:22.889Z,29.20
2023-03-02T06:35:52.321Z,29.20
2023-03-02T06:38:21.789Z,29.20
2023-03-02T06:40:51.164Z,29.20
2023-03-02T06:43:20.500Z,29.20
2023-03-02T06:45:49.847Z,29.10
2023-03-02T06:48:21.328Z,29.10
2023-03-02T06:50:51.058Z,29.10
2023-03-02T06:53:23.190Z,29.10
2023-03-02T06:55:53.208Z,29.10
2023-03-02T06:58:22.596Z,29.10
2023-03-02T07:00:51.964Z,29.10
2023-03-02T07:03:21.445Z,29.00
2023-03-02T07:05:51.844Z,29.00
2023-03-02T07:08:21.233Z,29.00
2023-03-02T07:10:50.571Z,28.90
2023-03-02T07:13:20.041Z,28.80
2023-03-02T07:15:49.702Z,28.80
2023-03-02T07:18:19.488Z,28.70
2023-03-02T07:20:49.958Z,28.70
2023-03-02T07:23:19.303Z,28.70
2023-03-02T07:25:48.664Z,28.70
2023-03-02T07:28:18.182Z,28.60
2023-03-02T07:30:48.625Z,28.60
2023-03-02T07:33:18.097Z,28.50
2023-03-02T07:35:47.479Z,28.40
2023-03-02T07:38:16.941Z,28.30
2023-03-02T07:40:47.150Z,28.30
2023-03-02T07:43:16.488Z,28.20
2023-03-02T07:45:45.819Z,28.10
2023-03-02T07:48:15.188Z,28.00
2023-03-02T07:50:44.606Z,27.90
2023-03-02T07:53:13.953Z,27.80
2023-03-02T07:55:44.012Z,27.70
2023-03-02T07:58:13.367Z,27.70
2023-03-02T08:00:43.116Z,27.50
2023-03-02T08:03:12.592Z,27.50
2023-03-02T08:05:41.940Z,27.30
2023-03-02T08:08:11.442Z,27.30
2023-03-02T08:10:41.038Z,27.20
2023-03-02T08:13:10.386Z,27.00
2023-03-02T08:15:40.414Z,27.00
2023-03-02T08:18:09.842Z,26.80
2023-03-02T08:20:39.476Z,26.70
2023-03-02T09:16:00.174Z,24.50
2023-03-02T09:18:30.677Z,24.30
2023-03-02T09:21:00.979Z,24.30
2023-03-02T09:23:30.747Z,24.30
2023-03-02T09:26:01.170Z,24.20
2023-03-02T09:28:30.791Z,24.20
2023-03-02T09:31:00.818Z,24.10
2023-03-02T09:33:30.815Z,24.10
2023-03-02T09:36:00.152Z,23.80
2023-03-02T09:38:29.748Z,23.80
2023-03-02T09:41:01.979Z,23.80
2023-03-02T09:43:46.678Z,23.80
2023-03-02T09:46:16.022Z,23.80
2023-03-02T09:48:54.710Z,23.70
2023-03-02T09:51:24.138Z,23.70
2023-03-02T09:54:06.693Z,23.70
2023-03-02T09:56:38.437Z,23.70
2023-03-02T09:59:10.762Z,23.70
2023-03-02T10:01:43.687Z,23.70
2023-03-02T10:04:16.332Z,23.70
2023-03-02T10:06:47.793Z,23.70
2023-03-02T10:09:18.196Z,23.50
2023-03-02T10:11:56.512Z,23.50
2023-03-02T11:18:56.982Z,22.40
2023-03-02T11:21:31.050Z,22.30
2023-03-02T11:24:01.126Z,22.30
2023-03-02T11:26:33.177Z,22.20
2023-03-02T11:29:08.572Z,22.20
2023-03-02T11:31:41.092Z,22.10
2023-03-02T11:34:20.283Z,22.10
2023-03-02T11:37:08.290Z,22.10
2023-03-02T11:39:50.054Z,22.00
2023-03-02T11:42:27.425Z,21.90
2023-03-02T11:44:56.972Z,21.90
2023-03-02T11:47:26.722Z,21.90
2023-03-02T11:50:00.846Z,21.90
2023-03-02T11:52:32.360Z,21.80
2023-03-02T11:55:06.391Z,21.80
2023-03-02T11:57:50.082Z,21.80
2023-03-02T12:00:32.171Z,21.70
2023-03-02T12:03:06.819Z,21.70
2023-03-02T12:05:41.298Z,21.70
2023-03-02T12:08:23.349Z,21.70
2023-03-02T12:11:03.733Z,21.70
2023-03-02T12:13:34.798Z,21.60
2023-03-02T12:16:04.424Z,21.60
2023-03-02T12:18:45.116Z,21.60
2023-03-02T12:21:16.549Z,21.60
2023-03-02T12:23:52.481Z,21.60
2023-03-02T12:26:22.471Z,21.50
2023-03-02T12:29:00.289Z,21.50
2023-03-02T12:31:41.219Z,21.50
2023-03-02T12:34:35.230Z,21.50
2023-03-02T12:37:10.370Z,21.40
2023-03-02T12:39:53.416Z,21.40
2023-03-02T12:42:28.953Z,21.30
2023-03-02T12:45:21.675Z,21.30
2023-03-02T12:47:53.416Z,21.30
2023-03-02T12:50:26.956Z,21.30
2023-03-02T12:53:08.061Z,21.30
2023-03-02T12:55:40.645Z,21.30
2023-03-02T12:58:17.330Z,21.20
2023-03-02T13:00:52.338Z,21.20
2023-03-02T13:03:21.837Z,21.20
2023-03-02T13:05:51.297Z,21.10
2023-03-02T13:08:20.705Z,21.10
2023-03-02T13:10:53.107Z,21.10
2023-03-02T13:13:24.464Z,21.10
2023-03-02T13:15:56.225Z,21.10
2023-03-02T13:18:26.866Z,21.10
2023-03-02T13:20:56.698Z,21.00
2023-03-02T13:23:26.704Z,21.00
2023-03-02T13:25:56.467Z,21.00
2023-03-02T13:28:36.794Z,21.00
2023-03-02T13:31:18.790Z,21.00
2023-03-02T13:33:49.401Z,21.00
2023-03-02T13:36:23.523Z,21.00
2023-03-02T13:38:54.218Z,21.00
2023-03-02T13:41:34.208Z,21.00
2023-03-02T13:44:24.712Z,21.00
2023-03-02T13:46:54.075Z,21.10
2023-03-02T13:49:34.602Z,21.10
2023-03-02T13:52:08.137Z,21.10
2023-03-02T13:54:38.261Z,21.00
2023-03-02T13:57:08.466Z,21.10
2023-03-02T13:59:38.169Z,21.00
2023-03-02T14:02:21.266Z,21.00
2023-03-02T14:04:50.727Z,21.00
2023-03-02T14:07:20.192Z,21.00
2023-03-02T14:09:49.927Z,21.00
2023-03-02T14:12:27.558Z,20.90
2023-03-02T14:14:59.133Z,21.00
2023-03-02T14:17:28.805Z,20.90
2023-03-02T14:19:58.275Z,20.90
2023-03-02T14:22:29.147Z,20.90
2023-03-02T14:24:58.908Z,20.90
2023-03-02T14:27:30.082Z,21.00
2023-03-02T14:29:59.948Z,21.00
2023-03-02T14:32:29.853Z,21.00
2023-03-02T14:34:59.427Z,21.00
2023-03-02T14:37:30.747Z,21.00
2023-03-02T14:40:00.181Z,21.00
2023-03-02T14:42:29.946Z,21.00
2023-03-02T14:45:00.055Z,21.00
2023-03-02T14:47:29.798Z,21.00
2023-03-02T14:49:59.179Z,21.00
2023-03-02T14:52:38.006Z,21.00
2023-03-02T14:55:08.868Z,20.90
2023-03-02T14:57:41.797Z,20.90
2023-03-02T15:00:14.564Z,21.00
2023-03-02T15:02:44.215Z,20.90
2023-03-02T15:05:14.199Z,20.90
2023-03-02T15:07:44.035Z,20.90
2023-03-02T15:10:17.904Z,20.90
2023-03-02T15:12:48.314Z,20.90
2023-03-02T15:15:17.870Z,21.00
2023-03-02T15:17:47.205Z,21.00
2023-03-02T15:20:17.786Z,21.00
2023-03-02T15:22:47.556Z,21.00
2023-03-02T15:25:16.966Z,20.90
2023-03-02T15:27:46.769Z,20.90
2023-03-02T15:30:16.242Z,20.90
2023-03-02T15:32:45.634Z,20.90
2023-03-02T15:35:15.100Z,20.90
2023-03-02T15:37:44.918Z,20.90
2023-03-02T15:40:15.024Z,20.90
2023-03-02T15:42:44.784Z,20.80
2023-03-02T15:45:14.146Z,20.80
2023-03-02T15:47:43.554Z,20.80
2023-03-02T15:50:13.340Z,20.80
2023-03-02T15:52:45.813Z,20.80
2023-03-02T15:55:17.874Z,20.80
2023-03-02T15:57:47.248Z,20.80
2023-03-02T16:00:16.932Z,20.80
2023-03-02T16:02:46.745Z,20.80
2023-03-02T16:05:17.561Z,20.80
2023-03-02T16:07:47.044Z,20.80
2023-03-02T16:10:18.060Z,20.80
2023-03-02T16:12:47.401Z,20.80
2023-03-02T16:15:16.824Z,20.80
2023-03-02T16:17:46.798Z,20.80
2023-03-02T16:20:16.659Z,20.80
2023-03-02T16:22:45.986Z,20.80
2023-03-02T16:25:15.808Z,20.80
2023-03-02T16:27:49.007Z,20.80
2023-03-02T16:30:18.421Z,20.80
2023-03-02T16:32:47.923Z,20.80
2023-03-02T16:35:17.319Z,20.80
2023-03-02T16:37:46.744Z,20.80
2023-03-02T16:40:16.598Z,20.80
2023-03-02T16:42:46.467Z,20.80
2023-03-02T16:45:15.905Z,20.70
2023-03-02T16:47:45.907Z,20.70
2023-03-02T16:50:16.695Z,20.80
2023-03-02T16:52:46.443Z,20.70
2023-03-02T16:55:18.120Z,20.70
2023-03-02T16:57:47.891Z,20.70
2023-03-02T17:00:19.657Z,20.70
2023-03-02T17:02:49.652Z,20.70
2023-03-02T17:05:20.160Z,20.70
2023-03-02T17:07:50.323Z,20.70
2023-03-02T17:10:23.092Z,20.70
2023-03-02T17:12:52.420Z,20.60
2023-03-02T17:15:22.315Z,20.70
2023-03-02T17:17:51.805Z,20.70
2023-03-02T17:20:22.093Z,20.70
2023-03-02T17:22:51.467Z,20.70
2023-03-02T17:25:22.032Z,20.60
2023-03-02T17:27:52.193Z,20.70
2023-03-02T17:30:21.774Z,20.70
2023-03-02T17:32:51.679Z,20.70
2023-03-02T17:35:21.678Z,20.70
2023-03-02T17:37:51.065Z,20.60
2023-03-02T17:40:20.901Z,20.60
2023-03-02T17:42:53.224Z,20.50
2023-03-02T17:45:26.657Z,20.50
2023-03-02T17:47:56.876Z,20.50
2023-03-02T17:50:26.291Z,20.50
2023-03-02T17:52:57.450Z,20.40
2023-03-02T17:55:27.168Z,20.40
2023-03-02T17:57:56.705Z,20.40
2023-03-02T18:00:26.264Z,20.40
2023-03-02T18:02:58.546Z,20.40
2023-03-02T18:05:28.700Z,20.40
2023-03-02T18:07:58.883Z,20.30
2023-03-02T18:10:28.258Z,20.30
2023-03-02T18:12:58.448Z,20.30
2023-03-02T18:15:30.209Z,20.30
2023-03-02T18:18:00.020Z,20.30
2023-03-02T18:20:29.796Z,20.30
2023-03-02T18:23:00.131Z,20.20
2023-03-02T18:25:30.190Z,20.20
2023-03-02T18:27:59.611Z,20.20
2023-03-02T18:30:29.632Z,20.10
2023-03-02T18:32:59.385Z,20.10
2023-03-02T18:35:28.748Z,20.10
2023-03-02T18:37:58.547Z,20.10
2023-03-02T18:40:27.981Z,20.10
2023-03-02T18:42:57.374Z,20.00
2023-03-02T18:45:28.411Z,20.00
2023-03-02T18:47:58.633Z,20.00
2023-03-02T18:50:28.424Z,20.00
2023-03-02T18:52:57.763Z,19.90
2023-03-02T18:55:27.846Z,19.80
2023-03-02T18:57:57.213Z,19.90
2023-03-02T19:00:28.168Z,19.80
2023-03-02T19:02:58.701Z,19.80
2023-03-02T19:05:28.637Z,19.80
2023-03-02T19:08:00.642Z,19.70
2023-03-02T19:10:29.982Z,19.80
2023-03-02T19:12:59.747Z,19.70
2023-03-02T19:15:29.640Z,19.70
2023-03-02T19:17:59.174Z,19.70
2023-03-02T19:20:29.240Z,19.60
2023-03-02T19:22:59.158Z,19.60
2023-03-02T19:25:28.637Z,19.50
2023-03-02T19:27:58.301Z,19.50
2023-03-02T19:30:28.070Z,19.40
2023-03-02T19:32:57.977Z,19.40
2023-03-02T19:35:28.941Z,19.40
2023-03-02T19:37:58.476Z,19.30
2023-03-02T19:40:29.473Z,19.30
2023-03-02T19:42:58.973Z,19.30
2023-03-02T19:45:30.697Z,19.20
2023-03-02T19:48:00.824Z,19.20
2023-03-02T19:50:30.660Z,19.20
2023-03-02T19:53:00.647Z,19.10
2023-03-02T19:55:30.040Z,19.10
2023-03-02T19:58:02.723Z,19.00
2023-03-02T20:00:32.965Z,19.00
2023-03-02T20:03:02.486Z,19.00
2023-03-02T20:05:32.179Z,18.90
2023-03-02T20:08:01.587Z,18.90
2023-03-02T20:10:37.484Z,19.00
2023-03-02T20:13:07.464Z,19.00
2023-03-02T20:15:40.105Z,19.00
2023-03-02T20:18:14.751Z,19.00
2023-03-02T20:20:45.056Z,19.00
2023-03-02T20:23:15.938Z,19.00
2023-03-02T20:25:48.235Z,19.00
2023-03-02T20:28:21.327Z,19.00
2023-03-02T20:30:53.792Z,19.10
2023-03-02T20:33:25.670Z,19.10
2023-03-02T20:35:56.480Z,19.20
2023-03-02T20:38:41.708Z,19.20
2023-03-02T20:41:13.470Z,19.30
2023-03-02T20:43:45.507Z,19.30
2023-03-02T20:46:20.209Z,19.40
2023-03-02T20:48:50.099Z,19.40
2023-03-02T20:51:19.531Z,19.40
2023-03-02T20:53:48.917Z,19.50
2023-03-02T20:56:20.135Z,19.50
2023-03-02T20:58:50.178Z,19.60
2023-03-02T21:01:20.380Z,19.60
2023-03-02T21:03:49.755Z,19.70
2023-03-02T21:06:19.836Z,19.70
2023-03-02T21:08:49.692Z,19.70
2023-03-02T21:11:20.226Z,19.70
2023-03-02T21:13:50.233Z,19.70
2023-03-02T21:16:23.156Z,19.70
2023-03-02T21:18:52.704Z,19.70
2023-03-02T21:21:29.816Z,19.70
2023-03-02T21:24:09.635Z,19.70
2023-03-02T21:26:39.399Z,19.80
2023-03-02T21:29:12.163Z,20.80
2023-03-02T21:31:45.379Z,21.60
2023-03-02T21:34:14.984Z,21.90
2023-03-02T21:36:45.469Z,21.30
2023-03-02T21:39:16.016Z,20.90
2023-03-02T21:41:45.401Z,20.70
2023-03-02T21:44:15.344Z,20.60
2023-03-02T21:46:44.858Z,20.60
2023-03-02T21:49:17.709Z,20.60
2023-03-02T21:51:48.984Z,20.70
2023-03-02T21:54:19.281Z,20.80
